Preview of NWS' New Version of Forecast
This preview is not operational and should not be used for support decisions.

Terminal Aerodrome Forecast (TAF)

Issued by National Weather Service (NWS)

                            
000
FTUS42 KKEY 252337
TAFEYW
TAF
KEYW 252337Z 2600/2624 08008KT P6SM SKC
     FM260300 03005KT P6SM SKC
     FM261000 01005KT P6SM SCT020 SCT080
     FM261400 35005KT P6SM SKC
     FM262200 34011G18KT P6SM SCT012=